Terminal Aerodrome Forecast
Issued by NWS

Home | Current Version | Previous Version | Text Only | Print | Product List | Glossary On
Versions: 1 2 3 4 5 6 7 8 9 10 11 12 13 14
000
FTUS45 KRIW 030531
TAFRKS
TAF
KRKS 030531Z 0306/0406 06007KT P6SM SCT120
     FM031600 VRB06KT P6SM FEW120
     FM032100 29010KT P6SM SCT100
     FM040300 35007KT P6SM SCT110=

USA.gov is the U.S. government's official web portal to all federal, state and local government web resources and services.